Time;durP1;ratioP1;P1;durP2;ratioP2;P2;SDS_P1;SDS_P2;PMS_P1;PMS_P2;Temp;Humidity;BMP_temperature;BMP_pressure;BME280_temperature;BME280_humidity;BME280_pressure;Samples;Min_cycle;Max_cycle;Signal;HPM_P1;HPM_P2
2023/09/08 00:02:13;;;;;;;9.57;7.03;;;;;;;23.23;89.70;100254.13;5132988;27;20062;-63
2023/09/08 00:04:38;;;;;;;10.88;6.88;;;;;;;23.23;89.94;100248.72;5132820;27;20126;-63
2023/09/08 00:07:04;;;;;;;10.00;6.20;;;;;;;23.25;88.63;100259.31;5133312;27;20054;-63
2023/09/08 00:09:29;;;;;;;9.18;6.25;;;;;;;23.25;88.86;100256.59;5131903;27;20040;-63
2023/09/08 00:11:55;;;;;;;13.98;6.50;;;;;;;23.27;88.88;100259.06;5131941;27;20027;-64
2023/09/08 00:14:20;;;;;;;10.45;6.40;;;;;;;23.26;89.48;100252.84;5131980;27;20269;-63
2023/09/08 00:16:46;;;;;;;8.23;6.22;;;;;;;23.22;89.18;100248.97;5129889;27;20225;-62
2023/09/08 00:19:11;;;;;;;8.45;5.70;;;;;;;23.18;89.09;100245.09;5131821;27;20312;-63
2023/09/08 00:21:37;;;;;;;7.75;6.30;;;;;;;23.17;89.25;100248.84;5131253;27;20039;-63
2023/09/08 00:24:06;;;;;;;11.00;5.93;;;;;;;23.17;89.32;100251.53;5131951;27;20042;-64
2023/09/08 00:26:32;;;;;;;9.30;5.72;;;;;;;23.19;89.67;100258.34;5131251;27;20082;-64
2023/09/08 00:28:57;;;;;;;8.27;6.38;;;;;;;23.21;89.13;100253.53;5132939;27;20071;-64
2023/09/08 00:31:23;;;;;;;7.47;6.60;;;;;;;23.19;88.61;100255.66;5132130;27;20027;-64
2023/09/08 00:33:48;;;;;;;9.70;7.05;;;;;;;23.17;88.41;100252.38;5133191;27;20285;-64
2023/09/08 00:36:15;;;;;;;8.43;6.32;;;;;;;23.15;88.98;100254.47;5132124;27;20028;-64
2023/09/08 00:38:41;;;;;;;8.57;6.30;;;;;;;23.14;89.47;100252.81;5132266;27;20318;-63
2023/09/08 00:41:06;;;;;;;12.00;7.40;;;;;;;23.11;89.68;100245.19;5132127;27;20039;-64
2023/09/08 00:43:32;;;;;;;11.75;7.28;;;;;;;23.11;90.66;100252.47;5114774;27;20062;-64
2023/09/08 00:45:58;;;;;;;9.40;6.95;;;;;;;23.11;88.90;100247.06;5130966;27;20053;-65
2023/09/08 00:48:25;;;;;;;9.88;6.72;;;;;;;23.13;88.67;100247.66;5133755;27;20031;-65
2023/09/08 00:50:50;;;;;;;9.77;7.25;;;;;;;23.15;88.71;100249.06;5131842;27;20050;-65
2023/09/08 00:53:16;;;;;;;7.45;6.13;;;;;;;23.08;89.77;100234.03;5133464;27;20122;-64
2023/09/08 00:55:42;;;;;;;8.80;6.72;;;;;;;23.09;89.71;100249.19;5133806;27;20258;-64
2023/09/08 00:58:08;;;;;;;12.52;7.13;;;;;;;23.06;89.51;100244.22;5131587;27;20047;-64
2023/09/08 01:00:33;;;;;;;8.60;6.65;;;;;;;23.02;89.83;100243.06;5133126;27;20349;-64
2023/09/08 01:03:00;;;;;;;9.60;6.30;;;;;;;23.02;90.00;100243.88;5130952;27;20031;-65
2023/09/08 01:05:25;;;;;;;12.05;6.95;;;;;;;23.01;90.15;100244.09;5133311;27;20258;-64
2023/09/08 01:07:52;;;;;;;10.30;7.38;;;;;;;22.89;90.73;100239.50;5092645;28;20055;-65
2023/09/08 01:10:17;;;;;;;10.10;7.03;;;;;;;22.81;90.28;100244.38;5093386;28;20030;-65
2023/09/08 01:12:42;;;;;;;7.20;6.47;;;;;;;;;;5090612;28;20095;-65
2023/09/08 01:15:08;;;;;;;8.38;5.85;;;;;;;22.69;90.60;100238.06;5090954;28;20103;-64
2023/09/08 01:17:34;;;;;;;10.30;7.05;;;;;;;22.56;91.14;100239.09;5090132;28;20044;-63
2023/09/08 01:20:29;;;;;;;7.85;6.75;;;;;;;22.53;91.49;100236.84;5091633;28;20024;-63
2023/09/08 01:23:11;;;;;;;7.93;6.28;;;;;;;22.54;91.18;100225.00;5090256;28;20330;-64
2023/09/08 01:25:44;;;;;;;8.48;6.03;;;;;;;22.54;91.37;100228.50;5090690;28;20038;-64
2023/09/08 01:28:12;;;;;;;9.88;6.95;;;;;;;22.40;92.26;100220.81;5092338;28;20063;-64
2023/09/08 01:30:38;;;;;;;10.68;7.10;;;;;;;22.40;92.66;100224.34;5092305;28;20080;-63
2023/09/08 01:33:04;;;;;;;8.55;6.50;;;;;;;22.35;93.15;100229.59;5091361;28;20226;-64
2023/09/08 01:35:30;;;;;;;10.32;7.65;;;;;;;22.38;93.07;100226.44;5089879;28;20040;-64
2023/09/08 01:37:55;;;;;;;8.88;6.72;;;;;;;22.39;92.94;100221.88;5092169;28;20051;-64
2023/09/08 01:40:21;;;;;;;8.55;7.22;;;;;;;22.42;92.76;100222.25;5088758;28;20081;-64
2023/09/08 01:42:48;;;;;;;9.00;6.63;;;;;;;22.41;92.82;100215.19;5089806;28;20074;-63
2023/09/08 01:45:13;;;;;;;8.45;6.72;;;;;;;22.37;93.28;100215.88;5089565;28;20315;-63
2023/09/08 01:47:39;;;;;;;7.90;6.68;;;;;;;22.38;93.13;100212.97;5086791;28;20032;-63
2023/09/08 01:50:05;;;;;;;11.75;7.55;;;;;;;22.42;93.03;100221.41;5090917;28;20039;-63
2023/09/08 01:52:30;;;;;;;8.75;7.05;;;;;;;22.41;nan;100226.00;5087638;28;20326;-64
2023/09/08 01:54:56;;;;;;;10.75;7.00;;;;;;;22.44;92.79;100224.72;5091887;28;20036;-64
2023/09/08 01:57:21;;;;;;;11.38;7.35;;;;;;;22.42;92.90;100224.13;5090368;28;20032;-64
2023/09/08 01:59:47;;;;;;;9.00;6.93;;;;;;;22.46;92.49;100225.31;5092283;28;20043;-64
2023/09/08 02:02:13;;;;;;;10.05;7.53;;;;;;;22.49;92.24;100225.69;5089641;28;20071;-63
2023/09/08 02:04:39;;;;;;;11.98;6.97;;;;;;;22.55;92.14;100221.25;5091567;28;20043;-63
2023/09/08 02:07:04;;;;;;;9.98;6.50;;;;;;;22.56;91.71;100215.63;5108269;28;20043;-63
2023/09/08 02:09:32;;;;;;;10.32;6.97;;;;;;;22.56;91.23;100222.88;5128823;28;20418;-63
2023/09/08 02:11:57;;;;;;;10.55;7.40;;;;;;;22.46;91.54;100214.53;5131963;28;20049;-63
2023/09/08 02:14:22;;;;;;;10.95;7.35;;;;;;;22.36;92.24;100219.63;5131208;28;20047;-63
2023/09/08 02:16:48;;;;;;;8.98;7.55;;;;;;;22.36;92.47;100215.06;5132379;28;20039;-63
2023/09/08 02:19:13;;;;;;;11.13;7.38;;;;;;;22.38;92.12;100221.06;5131583;28;20041;-63
2023/09/08 02:21:39;;;;;;;9.30;7.53;;;;;;;22.33;92.33;100220.91;5130684;28;20035;-63
2023/09/08 02:24:04;;;;;;;9.20;6.90;;;;;;;22.14;93.45;100212.03;5131493;28;20313;-63
2023/09/08 02:26:33;;;;;;;9.75;7.63;;;;;;;22.08;93.70;100212.91;5132095;28;20023;-63
2023/09/08 02:28:58;;;;;;;11.13;7.80;;;;;;;22.02;93.90;100204.88;5130885;28;20037;-63
2023/09/08 02:31:23;;;;;;;7.50;6.70;;;;;;;22.02;94.49;100205.69;5132924;27;20076;-63
2023/09/08 02:33:49;;;;;;;9.10;7.22;;;;;;;22.01;94.52;100198.66;5130202;28;20477;-63
2023/09/08 02:36:14;;;;;;;11.32;7.15;;;;;;;22.04;94.62;100197.41;5131649;27;20317;-63
2023/09/08 02:38:40;;;;;;;11.23;6.90;;;;;;;22.03;94.93;100195.78;5134374;27;20119;-62
2023/09/08 02:41:05;;;;;;;10.45;7.57;;;;;;;22.08;94.55;100204.84;5133674;27;20035;-63
2023/09/08 02:43:31;;;;;;;7.38;6.15;;;;;;;22.11;94.51;100198.16;5134300;27;20032;-63
2023/09/08 02:45:56;;;;;;;11.13;7.55;;;;;;;22.11;94.84;100201.69;5135022;27;20038;-63
2023/09/08 02:48:22;;;;;;;14.77;8.68;;;;;;;22.08;94.73;100193.22;5136800;27;20059;-63
2023/09/08 02:50:47;;;;;;;8.57;7.07;;;;;;;22.07;94.97;100202.38;5134887;27;20069;-63
2023/09/08 02:53:13;;;;;;;8.80;7.00;;;;;;;21.97;95.55;100194.78;5135657;27;20043;-63
2023/09/08 02:55:38;;;;;;;11.85;7.43;;;;;;;21.87;96.26;100192.59;5135638;27;20297;-63
2023/09/08 02:58:04;;;;;;;7.35;6.22;;;;;;;21.86;96.73;100193.66;5136353;27;20042;-63
2023/09/08 03:00:29;;;;;;;8.65;6.95;;;;;;;21.97;96.14;100194.78;5135268;27;20023;-63
2023/09/08 03:02:55;;;;;;;8.20;7.07;;;;;;;21.93;96.17;100207.88;5135621;27;20288;-63
2023/09/08 03:05:20;;;;;;;10.27;6.80;;;;;;;21.83;97.31;100201.34;5132538;27;20042;-63
2023/09/08 03:07:49;;;;;;;10.40;7.78;;;;;;;21.70;98.32;100199.59;5134657;27;20046;-63
2023/09/08 03:10:14;;;;;;;11.15;7.72;;;;;;;21.74;98.60;100203.50;5134274;27;20027;-64
2023/09/08 03:12:40;;;;;;;8.30;7.32;;;;;;;21.81;98.38;100200.72;5134217;27;20058;-63
2023/09/08 03:15:06;;;;;;;8.98;7.30;;;;;;;21.87;98.05;100202.56;5134219;27;20034;-64
2023/09/08 03:17:31;;;;;;;10.27;7.88;;;;;;;21.92;97.86;100214.31;5132079;27;20102;-63
2023/09/08 03:19:56;;;;;;;8.95;7.57;;;;;;;21.90;98.13;100211.03;5133299;27;20035;-63
2023/09/08 03:22:23;;;;;;;10.43;7.65;;;;;;;21.96;98.05;100218.22;5133812;27;20236;-63
2023/09/08 03:24:48;;;;;;;10.55;7.13;;;;;;;21.95;97.43;100213.03;5115684;27;20228;-64
2023/09/08 03:27:13;;;;;;;11.82;7.88;;;;;;;21.88;98.40;100209.59;5134082;27;20035;-63
2023/09/08 03:29:39;;;;;;;11.00;7.22;;;;;;;21.81;99.00;100212.34;5135202;27;20039;-63
2023/09/08 03:32:05;;;;;;;11.00;7.25;;;;;;;21.75;99.30;100210.53;5133921;27;20039;-63
2023/09/08 03:34:30;;;;;;;10.40;7.53;;;;;;;21.72;99.67;100213.69;5135132;27;20046;-63
2023/09/08 03:36:56;;;;;;;10.30;6.70;;;;;;;21.64;100.00;100209.41;5133276;27;20088;-64
2023/09/08 03:39:21;;;;;;;7.85;6.35;;;;;;;21.60;100.00;100208.19;5135062;27;20031;-63
2023/09/08 03:41:46;;;;;;;16.58;7.75;;;;;;;21.60;100.00;100208.19;5132980;27;20027;-63
2023/09/08 03:44:12;;;;;;;11.80;7.38;;;;;;;21.54;100.00;100216.34;5134614;27;20038;-63
2023/09/08 03:46:37;;;;;;;12.48;7.57;;;;;;;21.55;100.00;100213.44;5134881;27;20041;-64
2023/09/08 03:49:03;;;;;;;11.00;7.65;;;;;;;21.55;100.00;100216.13;5133070;27;20054;-66
2023/09/08 03:51:28;;;;;;;12.00;7.38;;;;;;;21.53;100.00;100214.69;5132686;27;20279;-64
2023/09/08 03:53:54;;;;;;;9.30;7.63;;;;;;;21.52;100.00;100218.44;5131049;27;20035;-64
2023/09/08 03:56:20;;;;;;;12.13;7.88;;;;;;;21.55;100.00;100224.22;5133868;27;20039;-64
2023/09/08 03:58:46;;;;;;;10.90;7.75;;;;;;;21.55;100.00;100221.53;5132130;27;20034;-63
2023/09/08 04:01:11;;;;;;;11.05;7.53;;;;;;;21.54;100.00;100222.56;5134115;27;20350;-64
2023/09/08 04:03:37;;;;;;;11.38;7.75;;;;;;;21.58;100.00;100226.47;5133866;27;20039;-63
2023/09/08 04:06:02;;;;;;;12.88;8.48;;;;;;;21.53;100.00;100223.59;5134266;27;20030;-63
2023/09/08 04:08:27;;;;;;;13.40;8.25;;;;;;;21.51;100.00;100225.69;5132279;27;20062;-64
2023/09/08 04:10:53;;;;;;;12.57;8.15;;;;;;;21.53;100.00;100220.91;5134670;27;20023;-64
2023/09/08 04:13:18;;;;;;;12.32;8.48;;;;;;;21.53;100.00;100223.59;5132042;27;20049;-64
2023/09/08 04:15:44;;;;;;;11.98;8.68;;;;;;;21.57;100.00;100229.38;5134410;27;20194;-64
2023/09/08 04:18:09;;;;;;;13.20;7.82;;;;;;;21.58;100.00;100229.16;5132816;27;20043;-64
2023/09/08 04:20:34;;;;;;;12.85;7.63;;;;;;;21.62;100.00;100230.38;5132908;27;20079;-63
2023/09/08 04:23:00;;;;;;;13.63;7.65;;;;;;;21.58;100.00;100231.03;5133890;27;20027;-64
2023/09/08 04:25:25;;;;;;;13.40;8.35;;;;;;;21.61;100.00;100238.66;5132909;27;20043;-64
2023/09/08 04:27:51;;;;;;;14.48;7.80;;;;;;;21.70;100.00;100240.03;5134375;27;20035;-63
2023/09/08 04:30:17;;;;;;;14.98;7.80;;;;;;;21.77;99.59;100231.88;5132539;27;20201;-64
2023/09/08 04:32:43;;;;;;;10.65;7.88;;;;;;;21.78;99.48;100225.44;5132336;27;20027;-63
2023/09/08 04:35:09;;;;;;;11.65;8.02;;;;;;;21.85;99.04;100239.69;5132555;27;20062;-63
2023/09/08 04:37:36;;;;;;;10.48;7.85;;;;;;;21.88;99.33;100242.78;5133655;27;20050;-64
2023/09/08 04:40:02;;;;;;;13.38;7.75;;;;;;;21.89;98.88;100241.72;5132066;27;20031;-64
2023/09/08 04:42:28;;;;;;;13.15;8.07;;;;;;;21.86;99.23;100252.13;5131998;27;20035;-64
2023/09/08 04:44:54;;;;;;;11.80;7.53;;;;;;;21.98;98.86;100253.03;5132663;27;20031;-64
2023/09/08 04:47:19;;;;;;;11.25;7.50;;;;;;;21.80;100.00;100253.81;5132778;27;20074;-63
2023/09/08 04:49:45;;;;;;;10.98;7.55;;;;;;;21.96;99.80;100252.44;5132447;27;20325;-64
2023/09/08 04:52:11;;;;;;;11.70;8.73;;;;;;;21.92;99.79;100249.38;5131002;27;20042;-64
2023/09/08 04:54:36;;;;;;;10.95;8.30;;;;;;;22.09;98.86;100255.03;5134505;27;20074;-64
2023/09/08 04:57:02;;;;;;;12.73;8.13;;;;;;;22.17;98.69;100262.81;5130670;27;20035;-63
2023/09/08 04:59:28;;;;;;;13.13;9.18;;;;;;;22.28;98.18;100261.22;5133452;27;20146;-64
2023/09/08 05:01:53;;;;;;;13.07;8.00;;;;;;;22.35;97.59;100253.88;5132955;27;20023;-63
2023/09/08 05:04:19;;;;;;;11.85;8.35;;;;;;;22.47;97.47;100262.03;5134458;27;20072;-64
2023/09/08 05:06:44;;;;;;;13.48;9.50;;;;;;;22.41;97.28;100254.84;5131225;27;20123;-64
2023/09/08 05:09:10;;;;;;;12.27;9.13;;;;;;;22.39;97.21;100262.34;5134062;27;20035;-64
2023/09/08 05:11:35;;;;;;;11.75;8.70;;;;;;;22.38;97.92;100252.59;5132693;27;20394;-64
2023/09/08 05:14:02;;;;;;;13.45;8.65;;;;;;;22.48;97.79;100255.59;5133062;27;20045;-63
2023/09/08 05:16:39;;;;;;;10.35;8.40;;;;;;;22.60;98.36;100257.28;5132767;27;20115;-64
2023/09/08 05:19:05;;;;;;;15.30;8.43;;;;;;;22.70;97.19;100256.75;5130492;27;20043;-64
2023/09/08 05:21:31;;;;;;;11.48;7.72;;;;;;;22.80;95.70;100267.03;5131558;27;20212;-64
2023/09/08 05:23:57;;;;;;;12.73;8.48;;;;;;;23.03;93.66;100263.59;5131613;27;20035;-64
2023/09/08 05:26:22;;;;;;;12.02;7.93;;;;;;;23.19;92.15;100269.16;5132884;27;20122;-64
2023/09/08 05:28:47;;;;;;;10.82;8.20;;;;;;;23.37;91.58;100276.38;5129947;27;20255;-63
2023/09/08 05:31:13;;;;;;;11.57;7.82;;;;;;;23.43;90.63;100274.59;5130231;27;20324;-63
2023/09/08 05:33:38;;;;;;;12.05;8.23;;;;;;;23.45;89.83;100267.91;5131766;27;20046;-64
2023/09/08 05:36:04;;;;;;;14.00;8.57;;;;;;;23.54;87.48;100277.34;5130224;27;20034;-64
2023/09/08 05:38:30;;;;;;;8.45;7.55;;;;;;;23.51;87.04;100282.38;5133280;28;20031;-64
2023/09/08 05:40:55;;;;;;;8.45;7.32;;;;;;;23.63;86.21;100282.41;5131572;28;20039;-63
2023/09/08 05:43:21;;;;;;;11.23;7.53;;;;;;;23.84;85.80;100281.81;5132606;28;20035;-64
2023/09/08 05:45:46;;;;;;;14.05;7.65;;;;;;;23.86;84.19;100280.53;5130611;28;20206;-64
2023/09/08 05:48:12;;;;;;;9.55;7.72;;;;;;;23.98;83.86;100283.25;5132752;27;20042;-64
2023/09/08 05:50:37;;;;;;;10.68;7.53;;;;;;;24.11;84.06;100287.59;5130689;28;20049;-63
2023/09/08 05:53:02;;;;;;;14.48;7.88;;;;;;;24.17;82.53;100287.47;5132486;28;20039;-64
2023/09/08 05:55:28;;;;;;;10.65;7.47;;;;;;;24.19;82.48;100285.34;5129910;28;20125;-64
2023/09/08 05:57:53;;;;;;;11.05;7.60;;;;;;;24.40;81.90;100289.31;5131241;28;20040;-64
2023/09/08 06:00:19;;;;;;;11.70;7.57;;;;;;;24.47;81.74;100292.72;5132328;28;20372;-64
2023/09/08 06:02:45;;;;;;;13.23;7.72;;;;;;;24.57;81.61;100291.28;5131661;28;20339;-64
2023/09/08 06:05:10;;;;;;;10.02;8.00;;;;;;;24.70;80.38;100296.41;5130596;28;20080;-64
2023/09/08 06:07:36;;;;;;;12.13;7.50;;;;;;;24.76;79.31;100293.56;5112956;28;20921;-64
2023/09/08 06:10:01;;;;;;;12.82;7.78;;;;;;;24.92;78.61;100293.84;5132561;27;20055;-64
2023/09/08 06:12:27;;;;;;;8.82;8.00;;;;;;;24.77;79.59;100297.09;5131443;27;20288;-64
2023/09/08 06:14:52;;;;;;;11.02;8.00;;;;;;;25.03;79.82;100293.84;5136321;27;20037;-64
2023/09/08 06:17:17;;;;;;;8.05;7.25;;;;;;;24.98;77.91;100296.47;5135380;27;20229;-66
2023/09/08 06:19:43;;;;;;;9.63;7.15;;;;;;;25.13;76.64;100298.63;5136771;27;20252;-63
2023/09/08 06:22:08;;;;;;;9.05;7.30;;;;;;;25.32;76.66;100297.34;5136247;27;20318;-63
2023/09/08 06:24:34;;;;;;;11.80;8.68;;;;;;;25.45;75.37;100309.75;5136755;27;20087;-64
2023/09/08 06:27:01;;;;;;;10.05;7.35;;;;;;;25.56;74.88;100316.16;5135519;27;20035;-63
2023/09/08 06:29:26;;;;;;;10.05;8.30;;;;;;;25.65;73.82;100304.69;5132993;27;20047;-64
2023/09/08 06:31:51;;;;;;;12.32;8.68;;;;;;;25.71;74.42;100311.84;5134147;27;20317;-63
2023/09/08 06:34:20;;;;;;;12.32;7.93;;;;;;;25.84;74.63;100307.13;5134833;27;20031;-63
2023/09/08 06:36:46;;;;;;;12.93;7.63;;;;;;;25.86;74.38;100310.41;5134364;27;20028;-62
2023/09/08 06:39:11;;;;;;;10.90;7.28;;;;;;;25.99;73.22;100310.88;5134825;27;20191;-63
2023/09/08 06:41:36;;;;;;;10.18;8.05;;;;;;;26.11;72.46;100313.53;5134049;27;20035;-64
2023/09/08 06:44:02;;;;;;;13.02;7.55;;;;;;;26.19;72.35;100315.81;5134538;27;20220;-63
2023/09/08 06:46:27;;;;;;;10.40;7.97;;;;;;;26.28;72.15;100321.63;5133484;27;20309;-63
2023/09/08 06:48:53;;;;;;;8.75;7.85;;;;;;;26.12;70.71;100319.78;5134547;27;20365;-63
2023/09/08 06:51:18;;;;;;;9.38;7.05;;;;;;;26.36;72.45;100321.22;5132742;27;20080;-63
2023/09/08 06:53:44;;;;;;;13.20;7.18;;;;;;;26.50;71.24;100311.63;5132580;27;20128;-64
2023/09/08 06:56:09;;;;;;;11.32;7.20;;;;;;;26.61;70.77;100316.09;5132593;27;20202;-64
2023/09/08 06:58:35;;;;;;;7.85;6.93;;;;;;;26.69;69.54;100315.66;5133609;27;20035;-64
2023/09/08 07:01:00;;;;;;;8.65;6.63;;;;;;;26.80;68.47;100318.50;5132641;27;20033;-63
2023/09/08 07:03:26;;;;;;;9.00;6.75;;;;;;;26.85;67.63;100313.13;5131826;27;20047;-64
2023/09/08 07:05:52;;;;;;;9.52;6.72;;;;;;;26.89;66.55;100322.41;5133929;27;20023;-64
2023/09/08 07:08:18;;;;;;;9.15;6.15;;;;;;;26.98;67.50;100313.56;5135223;27;20031;-64
2023/09/08 07:10:44;;;;;;;8.30;5.95;;;;;;;27.11;63.55;100317.78;5133587;27;20027;-63
2023/09/08 07:13:10;;;;;;;7.93;5.95;;;;;;;27.14;64.02;100311.84;5133904;27;20031;-63
2023/09/08 07:15:35;;;;;;;6.47;5.30;;;;;;;27.15;61.96;100308.06;5132804;27;20336;-63
2023/09/08 07:18:01;;;;;;;11.45;5.93;;;;;;;27.31;62.53;100309.81;5131084;27;20104;-64
2023/09/08 07:20:26;;;;;;;9.57;4.63;;;;;;;27.36;60.17;100317.22;5131345;27;20035;-64
2023/09/08 07:22:52;;;;;;;5.32;4.80;;;;;;;27.45;56.29;100309.41;5132422;27;20035;-64
2023/09/08 07:25:17;;;;;;;6.60;4.82;;;;;;;27.44;56.14;100308.56;5134825;27;20217;-64
2023/09/08 07:27:42;;;;;;;8.60;4.78;;;;;;;27.41;53.60;100311.00;5132938;27;20051;-64
2023/09/08 07:30:08;;;;;;;9.02;4.60;;;;;;;27.50;51.40;100323.03;5133318;27;20031;-65
2023/09/08 07:32:34;;;;;;;5.28;4.03;;;;;;;27.78;52.68;100314.59;5134472;27;20063;-64
2023/09/08 07:34:59;;;;;;;7.07;4.97;;;;;;;27.97;50.13;100310.34;5134499;27;20057;-64
2023/09/08 07:37:24;;;;;;;6.82;5.15;;;;;;;28.06;52.29;100305.22;5131531;27;20035;-64
2023/09/08 07:39:51;;;;;;;5.28;4.13;;;;;;;28.20;49.44;100305.59;5134805;27;20046;-64
2023/09/08 07:42:16;;;;;;;6.18;4.22;;;;;;;28.02;50.86;100298.66;5133410;27;20062;-64
2023/09/08 07:44:42;;;;;;;6.32;4.88;;;;;;;28.25;49.61;100297.50;5133915;27;20031;-63
2023/09/08 07:47:07;;;;;;;6.72;4.40;;;;;;;28.33;48.92;100296.16;5134621;27;20031;-65
2023/09/08 07:49:34;;;;;;;5.25;4.22;;;;;;;28.47;49.07;100291.88;5133269;27;20367;-65
2023/09/08 07:51:59;;;;;;;6.35;4.50;;;;;;;28.40;48.72;100296.75;5134040;27;20033;-63
2023/09/08 07:54:24;;;;;;;6.90;4.22;;;;;;;28.38;47.72;100293.47;5130391;27;20386;-64
2023/09/08 07:56:50;;;;;;;7.00;4.38;;;;;;;28.41;48.19;100293.75;5133903;27;20039;-64
2023/09/08 07:59:15;;;;;;;4.65;4.13;;;;;;;28.52;47.88;100294.59;5132210;27;20031;-63
2023/09/08 08:01:41;;;;;;;4.95;4.40;;;;;;;28.44;47.99;100285.03;5132470;27;20035;-64
2023/09/08 08:04:06;;;;;;;6.55;3.95;;;;;;;28.53;47.63;100277.19;5133387;27;20058;-64
2023/09/08 08:06:31;;;;;;;8.25;5.22;;;;;;;28.71;48.96;100292.22;5134279;27;20050;-65
2023/09/08 08:08:57;;;;;;;5.72;3.95;;;;;;;28.74;45.49;100284.31;5132283;27;20039;-64
2023/09/08 08:11:22;;;;;;;4.20;3.70;;;;;;;28.14;44.89;100287.59;5133231;27;20055;-64
2023/09/08 08:13:48;;;;;;;4.13;3.72;;;;;;;28.17;46.20;100278.91;5134140;27;20310;-64
2023/09/08 08:16:14;;;;;;;6.97;4.30;;;;;;;28.28;43.65;100283.34;5131362;27;20333;-62
2023/09/08 08:18:39;;;;;;;5.63;3.97;;;;;;;28.03;45.19;100285.88;5133535;27;20336;-63
2023/09/08 08:21:04;;;;;;;4.07;3.67;;;;;;;27.82;44.10;100295.81;5131657;27;20363;-64
2023/09/08 08:23:30;;;;;;;5.85;4.10;;;;;;;27.81;42.99;100277.88;5132167;27;20766;-63
2023/09/08 08:25:57;;;;;;;7.82;3.58;;;;;;;27.93;42.88;100282.03;5132179;27;20027;-64
2023/09/08 08:28:22;;;;;;;4.45;3.60;;;;;;;27.79;44.56;100277.31;5132836;27;20039;-64
2023/09/08 08:30:47;;;;;;;5.18;3.70;;;;;;;27.80;43.89;100277.03;5132950;27;20394;-63
2023/09/08 08:33:14;;;;;;;3.67;3.00;;;;;;;27.91;43.05;100272.47;5132837;27;20034;-63
2023/09/08 08:35:39;;;;;;;3.97;3.42;;;;;;;27.79;43.23;100269.13;5133118;27;20278;-63
2023/09/08 08:38:05;;;;;;;9.07;4.20;;;;;;;27.76;43.31;100280.56;5132748;27;20043;-63
2023/09/08 08:40:31;;;;;;;6.50;4.00;;;;;;;27.74;44.68;100275.38;5133852;27;20080;-63
2023/09/08 08:42:57;;;;;;;5.05;4.00;;;;;;;27.42;44.68;100271.84;5131492;27;20042;-63
2023/09/08 08:45:26;;;;;;;5.45;3.60;;;;;;;27.60;43.64;100271.44;5133962;27;20027;-63
2023/09/08 08:47:53;;;;;;;4.63;3.53;;;;;;;27.54;42.96;100272.47;5131760;27;20031;-63
2023/09/08 08:50:19;;;;;;;4.03;3.50;;;;;;;27.32;43.43;100276.13;5131971;27;20072;-63
2023/09/08 08:52:45;;;;;;;7.60;3.25;;;;;;;27.51;41.77;100265.66;5132048;27;20038;-63
2023/09/08 08:55:11;;;;;;;9.02;3.40;;;;;;;27.73;40.35;100262.84;5130545;27;20041;-63
2023/09/08 08:57:38;;;;;;;5.35;3.33;;;;;;;27.75;39.86;100262.59;5131590;27;20035;-63
2023/09/08 09:00:11;;;;;;;6.82;3.53;;;;;;;27.79;39.97;100250.91;5132988;27;20075;-63
2023/09/08 09:02:39;;;;;;;5.15;3.20;;;;;;;27.97;41.28;100264.06;5132406;27;20578;-63
2023/09/08 09:05:05;;;;;;;5.10;3.47;;;;;;;27.72;39.97;100258.47;5131992;27;20034;-64
2023/09/08 09:07:32;;;;;;;6.10;3.45;;;;;;;27.69;40.42;100256.28;5132659;27;20070;-63
2023/09/08 09:09:58;;;;;;;4.43;3.50;;;;;;;27.52;41.64;100261.84;5131871;27;20466;-63
2023/09/08 09:12:24;;;;;;;4.18;3.22;;;;;;;27.17;41.82;100256.13;5133626;27;20043;-63
2023/09/08 09:14:53;;;;;;;6.25;3.10;;;;;;;27.10;41.50;100256.34;5130143;27;20103;-63
2023/09/08 09:17:19;;;;;;;3.92;3.30;;;;;;;27.21;43.83;100252.66;5132073;27;20031;-63
2023/09/08 09:19:44;;;;;;;4.20;3.22;;;;;;;27.31;42.38;100255.44;5132910;27;20076;-63
2023/09/08 09:22:10;;;;;;;4.03;3.00;;;;;;;27.16;42.49;100244.44;5130510;27;20030;-63
2023/09/08 09:24:41;;;;;;;3.78;2.95;;;;;;;27.21;41.64;100255.38;5132804;27;20039;-63
2023/09/08 09:27:07;;;;;;;5.10;3.10;;;;;;;27.04;42.90;100246.47;5133496;27;20364;-64
2023/09/08 09:29:34;;;;;;;6.15;3.20;;;;;;;27.11;41.50;100254.44;5132221;27;20046;-63
2023/09/08 09:32:05;;;;;;;5.00;3.20;;;;;;;27.24;43.16;100238.53;5132483;27;20034;-63
2023/09/08 09:34:31;;;;;;;4.68;2.90;;;;;;;27.36;43.35;100238.34;5130963;27;20038;-63
2023/09/08 09:36:56;;;;;;;4.22;3.28;;;;;;;27.48;44.41;100247.13;5126888;27;20065;-63
2023/09/08 09:39:24;;;;;;;6.95;3.33;;;;;;;27.33;43.37;100242.41;5120012;28;20341;-63
2023/09/08 09:41:54;;;;;;;5.03;3.20;;;;;;;27.49;42.49;100229.75;5123350;28;20321;-63
2023/09/08 09:44:21;;;;;;;5.13;2.90;;;;;;;27.66;40.63;100225.00;5121225;28;20040;-64
2023/09/08 09:46:47;;;;;;;4.03;2.90;;;;;;;27.63;40.32;100227.41;5122492;27;20305;-63
2023/09/08 09:49:13;;;;;;;4.13;3.28;;;;;;;27.44;40.30;100234.31;5123251;27;20043;-64
2023/09/08 09:51:53;;;;;;;3.28;2.80;;;;;;;27.26;41.55;100222.78;5124433;27;20057;-63
2023/09/08 09:54:19;;;;;;;4.93;3.08;;;;;;;27.34;41.69;100222.28;5128754;27;20226;-63
2023/09/08 09:56:46;;;;;;;2.95;2.65;;;;;;;27.38;40.86;100205.47;5142742;27;20058;-63
2023/09/08 09:59:13;;;;;;;4.65;3.10;;;;;;;27.38;41.83;100213.63;5143284;27;20043;-63
2023/09/08 10:01:40;;;;;;;3.88;3.17;;;;;;;27.38;41.56;100208.19;5142835;27;20542;-63
2023/09/08 10:04:06;;;;;;;3.42;2.83;;;;;;;27.21;40.04;100213.75;5143344;27;20106;-63
2023/09/08 10:06:33;;;;;;;3.60;3.25;;;;;;;27.38;40.26;100203.56;5142832;27;20364;-63
2023/09/08 10:09:01;;;;;;;3.30;3.00;;;;;;;27.43;40.10;100200.88;5130323;27;20035;-63
2023/09/08 10:11:30;;;;;;;3.60;3.20;;;;;;;27.61;39.95;100199.66;5125793;27;20431;-63
2023/09/08 10:13:59;;;;;;;3.30;2.92;;;;;;;27.78;39.02;100188.59;5123672;27;20047;-63
2023/09/08 10:16:27;;;;;;;5.43;4.07;;;;;;;27.88;40.05;100183.19;5124899;27;20047;-64
2023/09/08 10:18:54;;;;;;;3.90;3.10;;;;;;;27.94;40.24;100185.69;5127478;27;20035;-63
2023/09/08 10:21:23;;;;;;;5.63;3.40;;;;;;;27.96;39.02;100185.41;5125075;27;20039;-63
2023/09/08 10:24:15;;;;;;;3.42;2.90;;;;;;;27.64;40.06;100188.25;5130714;27;20037;-63
2023/09/08 10:26:46;;;;;;;5.00;2.97;;;;;;;27.63;39.34;100179.25;5133059;27;20044;-63
2023/09/08 10:29:13;;;;;;;4.00;3.00;;;;;;;27.79;39.70;100179.34;5135349;27;20031;-63
2023/09/08 10:31:39;;;;;;;3.95;3.00;;;;;;;27.75;39.29;100170.91;5134890;27;20023;-63
2023/09/08 10:34:06;;;;;;;4.72;3.08;;;;;;;27.61;38.18;100175.16;5134432;27;20031;-63
2023/09/08 10:36:31;;;;;;;3.38;2.83;;;;;;;27.51;38.70;100167.75;5136218;27;20027;-63
2023/09/08 10:39:29;;;;;;;4.38;2.97;;;;;;;27.46;38.43;100170.44;5134479;27;20352;-63
2023/09/08 10:42:16;;;;;;;4.88;3.05;;;;;;;27.39;39.05;100163.59;5115865;27;20789;-63
2023/09/08 10:44:49;;;;;;;4.18;2.92;;;;;;;27.47;38.38;100169.34;5135753;27;20042;-63
2023/09/08 10:47:18;;;;;;;4.90;2.90;;;;;;;27.55;38.17;100166.13;5134513;27;20134;-62
2023/09/08 10:49:46;;;;;;;4.68;2.88;;;;;;;27.58;39.72;100162.88;5134412;27;20046;-63
2023/09/08 10:52:12;;;;;;;6.47;3.28;;;;;;;27.67;38.87;100152.34;5135433;27;20276;-62
2023/09/08 10:54:41;;;;;;;4.75;3.28;;;;;;;27.70;39.88;100153.72;5134143;27;20348;-63
2023/09/08 10:57:16;;;;;;;7.05;3.00;;;;;;;27.79;39.48;100157.56;5135236;27;20051;-63
2023/09/08 10:59:50;;;;;;;4.55;3.25;;;;;;;27.83;38.18;100156.78;5135899;27;20047;-63
2023/09/08 11:02:42;;;;;;;4.95;2.88;;;;;;;27.55;38.09;100157.16;5133107;27;20043;-64
2023/09/08 11:05:09;;;;;;;4.25;2.80;;;;;;;27.71;36.85;100148.03;5133406;27;20051;-63
2023/09/08 11:07:40;;;;;;;4.25;2.90;;;;;;;27.74;37.51;100147.50;5132349;27;20340;-63
2023/09/08 11:10:06;;;;;;;4.13;3.20;;;;;;;27.88;39.25;100143.19;5132244;27;20321;-63
2023/09/08 11:12:32;;;;;;;4.32;3.05;;;;;;;27.94;36.84;100138.59;5134146;27;20035;-63
2023/09/08 11:15:04;;;;;;;7.15;3.22;;;;;;;28.01;37.39;100125.53;5135642;27;20054;-63
2023/09/08 11:17:30;;;;;;;3.20;2.90;;;;;;;28.06;38.92;100127.47;5133635;27;20215;-65
2023/09/08 11:19:56;;;;;;;6.65;3.05;;;;;;;28.13;37.44;100125.34;5134783;27;20027;-64